sensor_id;sensor_type;location;lat;lon;timestamp;P1;durP1;ratioP1;P2;durP2;ratioP2
21663;SDS011;10993;52.510;13.456;2022-09-25T00:02:32;9.23;;;6.10;;
21663;SDS011;10993;52.510;13.456;2022-09-25T00:07:32;10.07;;;6.47;;
21663;SDS011;10993;52.510;13.456;2022-09-25T00:12:32;16.67;;;9.07;;
21663;SDS011;10993;52.510;13.456;2022-09-25T00:17:34;8.43;;;5.25;;
21663;SDS011;10993;52.510;13.456;2022-09-25T00:22:35;8.27;;;5.32;;
21663;SDS011;10993;52.510;13.456;2022-09-25T00:27:35;6.85;;;4.90;;
21663;SDS011;10993;52.510;13.456;2022-09-25T00:32:37;9.68;;;5.68;;
21663;SDS011;10993;52.510;13.456;2022-09-25T00:37:38;9.13;;;5.25;;
21663;SDS011;10993;52.510;13.456;2022-09-25T00:42:38;7.25;;;4.78;;
21663;SDS011;10993;52.510;13.456;2022-09-25T00:47:45;10.32;;;5.15;;
21663;SDS011;10993;52.510;13.456;2022-09-25T00:52:51;7.72;;;4.70;;
21663;SDS011;10993;52.510;13.456;2022-09-25T00:57:54;8.90;;;5.28;;
21663;SDS011;10993;52.510;13.456;2022-09-25T01:02:57;7.03;;;4.97;;
21663;SDS011;10993;52.510;13.456;2022-09-25T01:07:58;8.95;;;4.57;;
21663;SDS011;10993;52.510;13.456;2022-09-25T01:13:01;6.43;;;4.10;;
21663;SDS011;10993;52.510;13.456;2022-09-25T01:18:05;6.30;;;4.10;;
21663;SDS011;10993;52.510;13.456;2022-09-25T01:23:15;5.75;;;3.85;;
21663;SDS011;10993;52.510;13.456;2022-09-25T01:28:38;7.65;;;3.90;;
21663;SDS011;10993;52.510;13.456;2022-09-25T01:33:50;5.78;;;3.58;;
21663;SDS011;10993;52.510;13.456;2022-09-25T01:38:58;8.23;;;3.75;;
21663;SDS011;10993;52.510;13.456;2022-09-25T01:44:08;7.25;;;4.10;;
21663;SDS011;10993;52.510;13.456;2022-09-25T01:49:15;5.97;;;3.67;;
21663;SDS011;10993;52.510;13.456;2022-09-25T01:54:21;6.65;;;3.83;;
21663;SDS011;10993;52.510;13.456;2022-09-25T01:59:29;5.85;;;3.45;;
21663;SDS011;10993;52.510;13.456;2022-09-25T02:04:35;7.65;;;3.65;;
21663;SDS011;10993;52.510;13.456;2022-09-25T02:09:39;6.10;;;3.78;;
21663;SDS011;10993;52.510;13.456;2022-09-25T02:14:44;6.47;;;3.63;;
21663;SDS011;10993;52.510;13.456;2022-09-25T02:19:49;6.35;;;4.22;;
21663;SDS011;10993;52.510;13.456;2022-09-25T02:25:09;6.55;;;3.90;;
21663;SDS011;10993;52.510;13.456;2022-09-25T02:30:19;6.70;;;3.70;;
21663;SDS011;10993;52.510;13.456;2022-09-25T02:35:19;5.78;;;3.80;;
21663;SDS011;10993;52.510;13.456;2022-09-25T02:40:20;7.30;;;4.25;;
21663;SDS011;10993;52.510;13.456;2022-09-25T02:45:30;6.18;;;4.60;;
21663;SDS011;10993;52.510;13.456;2022-09-25T02:50:40;6.68;;;3.80;;
21663;SDS011;10993;52.510;13.456;2022-09-25T02:55:48;10.30;;;3.90;;
21663;SDS011;10993;52.510;13.456;2022-09-25T03:00:54;6.38;;;4.00;;
21663;SDS011;10993;52.510;13.456;2022-09-25T03:05:56;7.25;;;3.92;;
21663;SDS011;10993;52.510;13.456;2022-09-25T03:10:57;7.13;;;4.00;;
21663;SDS011;10993;52.510;13.456;2022-09-25T03:16:00;7.78;;;4.10;;
21663;SDS011;10993;52.510;13.456;2022-09-25T03:21:03;7.55;;;3.88;;
21663;SDS011;10993;52.510;13.456;2022-09-25T03:26:04;7.78;;;4.50;;
21663;SDS011;10993;52.510;13.456;2022-09-25T03:31:07;7.22;;;4.55;;
21663;SDS011;10993;52.510;13.456;2022-09-25T03:36:10;7.70;;;4.05;;
21663;SDS011;10993;52.510;13.456;2022-09-25T03:41:12;6.40;;;4.43;;
21663;SDS011;10993;52.510;13.456;2022-09-25T03:46:16;7.50;;;4.85;;
21663;SDS011;10993;52.510;13.456;2022-09-25T03:51:18;6.38;;;4.25;;
21663;SDS011;10993;52.510;13.456;2022-09-25T03:56:20;6.80;;;4.30;;
21663;SDS011;10993;52.510;13.456;2022-09-25T04:01:24;5.43;;;3.85;;
21663;SDS011;10993;52.510;13.456;2022-09-25T04:06:25;6.82;;;4.38;;
21663;SDS011;10993;52.510;13.456;2022-09-25T04:11:26;7.32;;;4.80;;
21663;SDS011;10993;52.510;13.456;2022-09-25T04:16:27;6.22;;;4.47;;
21663;SDS011;10993;52.510;13.456;2022-09-25T04:21:30;6.88;;;4.53;;
21663;SDS011;10993;52.510;13.456;2022-09-25T04:26:30;8.65;;;4.97;;
21663;SDS011;10993;52.510;13.456;2022-09-25T04:31:32;6.05;;;4.85;;
21663;SDS011;10993;52.510;13.456;2022-09-25T04:36:32;8.60;;;4.68;;
21663;SDS011;10993;52.510;13.456;2022-09-25T04:41:33;7.97;;;5.50;;
21663;SDS011;10993;52.510;13.456;2022-09-25T04:46:35;7.72;;;4.50;;
21663;SDS011;10993;52.510;13.456;2022-09-25T04:51:35;7.80;;;4.82;;
21663;SDS011;10993;52.510;13.456;2022-09-25T04:56:35;7.45;;;4.97;;
21663;SDS011;10993;52.510;13.456;2022-09-25T05:01:37;9.55;;;5.40;;
21663;SDS011;10993;52.510;13.456;2022-09-25T05:06:37;8.65;;;5.50;;
21663;SDS011;10993;52.510;13.456;2022-09-25T05:11:38;8.13;;;5.53;;
21663;SDS011;10993;52.510;13.456;2022-09-25T05:16:39;8.88;;;5.20;;
21663;SDS011;10993;52.510;13.456;2022-09-25T05:21:40;7.85;;;5.28;;
21663;SDS011;10993;52.510;13.456;2022-09-25T05:26:41;8.80;;;5.82;;
21663;SDS011;10993;52.510;13.456;2022-09-25T05:31:42;9.02;;;5.63;;
21663;SDS011;10993;52.510;13.456;2022-09-25T05:36:45;9.00;;;5.47;;
21663;SDS011;10993;52.510;13.456;2022-09-25T05:41:46;8.32;;;5.82;;
21663;SDS011;10993;52.510;13.456;2022-09-25T05:46:47;7.65;;;5.35;;
21663;SDS011;10993;52.510;13.456;2022-09-25T05:51:48;7.50;;;5.35;;
21663;SDS011;10993;52.510;13.456;2022-09-25T05:56:49;10.02;;;5.80;;
21663;SDS011;10993;52.510;13.456;2022-09-25T06:01:51;8.98;;;5.78;;
21663;SDS011;10993;52.510;13.456;2022-09-25T06:06:51;9.82;;;6.20;;
21663;SDS011;10993;52.510;13.456;2022-09-25T06:11:51;10.95;;;6.13;;
21663;SDS011;10993;52.510;13.456;2022-09-25T06:16:53;8.73;;;5.55;;
21663;SDS011;10993;52.510;13.456;2022-09-25T06:21:54;9.98;;;6.00;;
21663;SDS011;10993;52.510;13.456;2022-09-25T06:26:55;9.35;;;5.72;;
21663;SDS011;10993;52.510;13.456;2022-09-25T06:31:57;9.75;;;6.47;;
21663;SDS011;10993;52.510;13.456;2022-09-25T06:36:58;8.75;;;5.70;;
21663;SDS011;10993;52.510;13.456;2022-09-25T06:41:59;9.27;;;5.57;;
21663;SDS011;10993;52.510;13.456;2022-09-25T06:47:00;7.97;;;4.80;;
21663;SDS011;10993;52.510;13.456;2022-09-25T06:52:00;8.82;;;5.22;;
21663;SDS011;10993;52.510;13.456;2022-09-25T06:57:01;7.65;;;5.00;;
21663;SDS011;10993;52.510;13.456;2022-09-25T07:02:03;9.95;;;5.00;;
21663;SDS011;10993;52.510;13.456;2022-09-25T07:07:23;9.43;;;5.97;;
21663;SDS011;10993;52.510;13.456;2022-09-25T07:12:24;8.57;;;5.68;;
21663;SDS011;10993;52.510;13.456;2022-09-25T07:17:25;8.77;;;5.53;;
21663;SDS011;10993;52.510;13.456;2022-09-25T07:22:26;7.38;;;5.53;;
21663;SDS011;10993;52.510;13.456;2022-09-25T07:27:28;10.73;;;5.57;;
21663;SDS011;10993;52.510;13.456;2022-09-25T07:32:30;7.72;;;5.53;;
21663;SDS011;10993;52.510;13.456;2022-09-25T07:37:30;9.88;;;5.60;;
21663;SDS011;10993;52.510;13.456;2022-09-25T07:42:31;10.18;;;5.85;;
21663;SDS011;10993;52.510;13.456;2022-09-25T07:47:33;8.20;;;5.30;;
21663;SDS011;10993;52.510;13.456;2022-09-25T07:52:33;8.63;;;5.47;;
21663;SDS011;10993;52.510;13.456;2022-09-25T07:57:34;7.78;;;5.13;;
21663;SDS011;10993;52.510;13.456;2022-09-25T08:02:36;7.53;;;5.03;;
21663;SDS011;10993;52.510;13.456;2022-09-25T08:07:36;7.47;;;4.82;;
21663;SDS011;10993;52.510;13.456;2022-09-25T08:12:36;8.23;;;5.60;;
21663;SDS011;10993;52.510;13.456;2022-09-25T08:17:41;8.00;;;4.75;;
21663;SDS011;10993;52.510;13.456;2022-09-25T08:22:41;8.00;;;5.30;;
21663;SDS011;10993;52.510;13.456;2022-09-25T08:27:42;7.67;;;5.37;;
21663;SDS011;10993;52.510;13.456;2022-09-25T08:32:43;7.07;;;5.23;;
21663;SDS011;10993;52.510;13.456;2022-09-25T08:37:44;7.90;;;4.85;;
21663;SDS011;10993;52.510;13.456;2022-09-25T08:42:46;7.30;;;5.43;;
21663;SDS011;10993;52.510;13.456;2022-09-25T08:47:50;8.13;;;5.35;;
21663;SDS011;10993;52.510;13.456;2022-09-25T08:53:13;10.52;;;5.97;;
21663;SDS011;10993;52.510;13.456;2022-09-25T08:58:21;8.52;;;5.68;;
21663;SDS011;10993;52.510;13.456;2022-09-25T09:03:25;7.82;;;5.60;;
21663;SDS011;10993;52.510;13.456;2022-09-25T09:08:30;8.52;;;6.03;;
21663;SDS011;10993;52.510;13.456;2022-09-25T09:13:34;9.75;;;5.55;;
21663;SDS011;10993;52.510;13.456;2022-09-25T09:18:43;7.78;;;5.50;;
21663;SDS011;10993;52.510;13.456;2022-09-25T09:23:45;9.65;;;5.57;;
21663;SDS011;10993;52.510;13.456;2022-09-25T09:29:02;8.60;;;5.28;;
21663;SDS011;10993;52.510;13.456;2022-09-25T09:34:24;9.20;;;5.43;;
21663;SDS011;10993;52.510;13.456;2022-09-25T09:39:37;8.98;;;5.20;;
21663;SDS011;10993;52.510;13.456;2022-09-25T09:44:48;7.93;;;5.10;;
21663;SDS011;10993;52.510;13.456;2022-09-25T09:50:00;6.90;;;5.10;;
21663;SDS011;10993;52.510;13.456;2022-09-25T09:55:18;9.10;;;4.60;;
21663;SDS011;10993;52.510;13.456;2022-09-25T10:00:23;7.18;;;4.45;;
21663;SDS011;10993;52.510;13.456;2022-09-25T10:05:25;7.20;;;5.03;;
21663;SDS011;10993;52.510;13.456;2022-09-25T10:10:31;6.63;;;4.75;;
21663;SDS011;10993;52.510;13.456;2022-09-25T10:15:38;7.55;;;5.15;;
21663;SDS011;10993;52.510;13.456;2022-09-25T10:20:43;8.60;;;5.32;;
21663;SDS011;10993;52.510;13.456;2022-09-25T10:25:48;7.07;;;5.22;;
21663;SDS011;10993;52.510;13.456;2022-09-25T10:30:48;7.70;;;5.13;;
21663;SDS011;10993;52.510;13.456;2022-09-25T10:35:52;8.00;;;6.00;;
21663;SDS011;10993;52.510;13.456;2022-09-25T10:40:58;8.57;;;5.93;;
21663;SDS011;10993;52.510;13.456;2022-09-25T10:46:03;7.18;;;4.93;;
21663;SDS011;10993;52.510;13.456;2022-09-25T10:51:12;6.40;;;4.80;;
21663;SDS011;10993;52.510;13.456;2022-09-25T10:56:18;6.38;;;4.97;;
21663;SDS011;10993;52.510;13.456;2022-09-25T11:01:20;7.32;;;4.80;;
21663;SDS011;10993;52.510;13.456;2022-09-25T11:06:32;6.43;;;4.70;;
21663;SDS011;10993;52.510;13.456;2022-09-25T11:11:34;6.45;;;4.30;;
21663;SDS011;10993;52.510;13.456;2022-09-25T11:16:48;5.55;;;4.10;;
21663;SDS011;10993;52.510;13.456;2022-09-25T11:21:54;6.80;;;4.50;;
21663;SDS011;10993;52.510;13.456;2022-09-25T11:27:04;8.80;;;5.82;;
21663;SDS011;10993;52.510;13.456;2022-09-25T11:32:13;6.95;;;4.95;;
21663;SDS011;10993;52.510;13.456;2022-09-25T11:37:22;9.18;;;5.15;;
21663;SDS011;10993;52.510;13.456;2022-09-25T11:42:26;11.63;;;7.22;;
21663;SDS011;10993;52.510;13.456;2022-09-25T11:47:35;6.07;;;4.43;;
21663;SDS011;10993;52.510;13.456;2022-09-25T11:52:42;7.15;;;5.20;;
21663;SDS011;10993;52.510;13.456;2022-09-25T11:57:56;11.45;;;8.00;;
21663;SDS011;10993;52.510;13.456;2022-09-25T12:03:15;8.30;;;5.55;;
21663;SDS011;10993;52.510;13.456;2022-09-25T12:08:41;9.13;;;5.90;;
21663;SDS011;10993;52.510;13.456;2022-09-25T12:13:57;7.30;;;4.80;;
21663;SDS011;10993;52.510;13.456;2022-09-25T12:19:06;14.18;;;8.50;;
21663;SDS011;10993;52.510;13.456;2022-09-25T12:24:20;9.13;;;6.22;;
21663;SDS011;10993;52.510;13.456;2022-09-25T12:29:33;6.88;;;4.60;;
21663;SDS011;10993;52.510;13.456;2022-09-25T12:34:45;6.38;;;4.63;;
21663;SDS011;10993;52.510;13.456;2022-09-25T12:39:59;7.75;;;4.60;;
21663;SDS011;10993;52.510;13.456;2022-09-25T12:45:08;8.55;;;4.85;;
21663;SDS011;10993;52.510;13.456;2022-09-25T12:50:15;13.68;;;9.50;;
21663;SDS011;10993;52.510;13.456;2022-09-25T12:55:20;8.43;;;4.95;;
21663;SDS011;10993;52.510;13.456;2022-09-25T13:00:26;8.30;;;4.68;;
21663;SDS011;10993;52.510;13.456;2022-09-25T13:05:29;8.43;;;5.75;;
21663;SDS011;10993;52.510;13.456;2022-09-25T13:10:35;5.78;;;3.40;;
21663;SDS011;10993;52.510;13.456;2022-09-25T13:15:38;6.40;;;3.90;;
21663;SDS011;10993;52.510;13.456;2022-09-25T13:20:51;7.47;;;4.53;;
21663;SDS011;10993;52.510;13.456;2022-09-25T13:25:55;7.00;;;4.30;;
21663;SDS011;10993;52.510;13.456;2022-09-25T13:31:05;4.75;;;3.15;;
21663;SDS011;10993;52.510;13.456;2022-09-25T13:36:08;7.20;;;4.60;;
21663;SDS011;10993;52.510;13.456;2022-09-25T13:41:26;7.15;;;4.97;;
21663;SDS011;10993;52.510;13.456;2022-09-25T13:46:28;8.55;;;5.55;;
21663;SDS011;10993;52.510;13.456;2022-09-25T13:51:33;6.95;;;4.03;;
21663;SDS011;10993;52.510;13.456;2022-09-25T13:56:46;6.28;;;4.18;;
21663;SDS011;10993;52.510;13.456;2022-09-25T14:01:54;6.80;;;4.07;;
21663;SDS011;10993;52.510;13.456;2022-09-25T14:07:02;6.20;;;3.80;;
21663;SDS011;10993;52.510;13.456;2022-09-25T14:12:08;5.43;;;3.58;;
21663;SDS011;10993;52.510;13.456;2022-09-25T14:17:18;5.95;;;4.32;;
21663;SDS011;10993;52.510;13.456;2022-09-25T14:22:23;6.22;;;3.85;;
21663;SDS011;10993;52.510;13.456;2022-09-25T14:27:30;7.30;;;5.13;;
21663;SDS011;10993;52.510;13.456;2022-09-25T14:32:36;7.38;;;5.18;;
21663;SDS011;10993;52.510;13.456;2022-09-25T14:37:53;5.95;;;4.20;;
21663;SDS011;10993;52.510;13.456;2022-09-25T14:43:14;5.93;;;4.15;;
21663;SDS011;10993;52.510;13.456;2022-09-25T14:48:28;8.27;;;5.82;;
21663;SDS011;10993;52.510;13.456;2022-09-25T14:53:33;7.82;;;5.10;;
21663;SDS011;10993;52.510;13.456;2022-09-25T14:58:38;6.80;;;4.95;;
21663;SDS011;10993;52.510;13.456;2022-09-25T15:03:43;8.18;;;5.80;;
21663;SDS011;10993;52.510;13.456;2022-09-25T15:08:46;7.82;;;5.10;;
21663;SDS011;10993;52.510;13.456;2022-09-25T15:13:47;8.43;;;6.13;;
21663;SDS011;10993;52.510;13.456;2022-09-25T15:18:49;8.25;;;5.32;;
21663;SDS011;10993;52.510;13.456;2022-09-25T15:23:53;7.25;;;4.95;;
21663;SDS011;10993;52.510;13.456;2022-09-25T15:28:58;9.18;;;6.32;;
21663;SDS011;10993;52.510;13.456;2022-09-25T15:34:02;9.35;;;5.63;;
21663;SDS011;10993;52.510;13.456;2022-09-25T15:39:08;8.10;;;5.13;;
21663;SDS011;10993;52.510;13.456;2022-09-25T15:44:17;9.88;;;6.07;;
21663;SDS011;10993;52.510;13.456;2022-09-25T15:49:19;7.28;;;4.78;;
21663;SDS011;10993;52.510;13.456;2022-09-25T15:54:29;9.07;;;5.90;;
21663;SDS011;10993;52.510;13.456;2022-09-25T15:59:39;9.65;;;6.10;;
21663;SDS011;10993;52.510;13.456;2022-09-25T16:05:02;7.00;;;4.60;;
21663;SDS011;10993;52.510;13.456;2022-09-25T16:10:04;11.93;;;6.07;;
21663;SDS011;10993;52.510;13.456;2022-09-25T16:15:43;8.02;;;5.20;;
21663;SDS011;10993;52.510;13.456;2022-09-25T16:20:52;8.60;;;5.45;;
21663;SDS011;10993;52.510;13.456;2022-09-25T16:25:55;7.93;;;4.68;;
21663;SDS011;10993;52.510;13.456;2022-09-25T16:31:00;8.18;;;5.35;;
21663;SDS011;10993;52.510;13.456;2022-09-25T16:36:04;9.05;;;5.40;;
21663;SDS011;10993;52.510;13.456;2022-09-25T16:41:17;10.68;;;5.68;;
21663;SDS011;10993;52.510;13.456;2022-09-25T16:46:22;7.25;;;4.93;;
21663;SDS011;10993;52.510;13.456;2022-09-25T16:51:23;9.30;;;4.93;;
21663;SDS011;10993;52.510;13.456;2022-09-25T16:56:28;6.32;;;4.25;;
21663;SDS011;10993;52.510;13.456;2022-09-25T17:01:31;9.05;;;4.47;;
21663;SDS011;10993;52.510;13.456;2022-09-25T17:06:32;6.40;;;4.60;;
21663;SDS011;10993;52.510;13.456;2022-09-25T17:11:36;7.40;;;4.55;;
21663;SDS011;10993;52.510;13.456;2022-09-25T17:16:39;12.60;;;7.80;;
21663;SDS011;10993;52.510;13.456;2022-09-25T17:21:40;9.88;;;5.72;;
21663;SDS011;10993;52.510;13.456;2022-09-25T17:26:40;6.90;;;4.80;;
21663;SDS011;10993;52.510;13.456;2022-09-25T17:31:43;9.20;;;5.90;;
21663;SDS011;10993;52.510;13.456;2022-09-25T17:36:44;8.60;;;5.68;;
21663;SDS011;10993;52.510;13.456;2022-09-25T17:41:44;7.82;;;4.85;;
21663;SDS011;10993;52.510;13.456;2022-09-25T17:46:47;8.20;;;5.15;;
21663;SDS011;10993;52.510;13.456;2022-09-25T17:51:48;7.93;;;4.95;;
21663;SDS011;10993;52.510;13.456;2022-09-25T17:56:49;10.68;;;5.35;;
21663;SDS011;10993;52.510;13.456;2022-09-25T18:01:50;10.68;;;5.40;;
21663;SDS011;10993;52.510;13.456;2022-09-25T18:06:52;12.35;;;7.72;;
21663;SDS011;10993;52.510;13.456;2022-09-25T18:11:52;8.25;;;4.25;;
21663;SDS011;10993;52.510;13.456;2022-09-25T18:16:54;7.25;;;4.43;;
21663;SDS011;10993;52.510;13.456;2022-09-25T18:21:55;7.82;;;4.25;;
21663;SDS011;10993;52.510;13.456;2022-09-25T18:27:14;6.72;;;4.53;;
21663;SDS011;10993;52.510;13.456;2022-09-25T18:32:16;8.15;;;4.57;;
21663;SDS011;10993;52.510;13.456;2022-09-25T18:37:16;7.30;;;4.70;;
21663;SDS011;10993;52.510;13.456;2022-09-25T18:42:17;8.23;;;4.57;;
21663;SDS011;10993;52.510;13.456;2022-09-25T18:47:18;7.45;;;4.28;;
21663;SDS011;10993;52.510;13.456;2022-09-25T18:52:19;9.45;;;4.45;;
21663;SDS011;10993;52.510;13.456;2022-09-25T18:57:20;7.65;;;4.82;;
21663;SDS011;10993;52.510;13.456;2022-09-25T19:02:22;7.72;;;4.22;;
21663;SDS011;10993;52.510;13.456;2022-09-25T19:07:25;6.03;;;3.78;;
21663;SDS011;10993;52.510;13.456;2022-09-25T19:12:26;6.32;;;3.80;;
21663;SDS011;10993;52.510;13.456;2022-09-25T19:17:28;6.35;;;4.00;;
21663;SDS011;10993;52.510;13.456;2022-09-25T19:22:29;8.38;;;4.63;;
21663;SDS011;10993;52.510;13.456;2022-09-25T19:27:30;6.80;;;4.40;;
21663;SDS011;10993;52.510;13.456;2022-09-25T19:32:32;6.22;;;3.78;;
21663;SDS011;10993;52.510;13.456;2022-09-25T19:37:32;7.28;;;4.07;;
21663;SDS011;10993;52.510;13.456;2022-09-25T19:42:32;7.27;;;4.10;;
21663;SDS011;10993;52.510;13.456;2022-09-25T19:47:37;6.95;;;4.10;;
21663;SDS011;10993;52.510;13.456;2022-09-25T19:52:37;7.80;;;4.43;;
21663;SDS011;10993;52.510;13.456;2022-09-25T19:57:38;7.50;;;3.95;;
21663;SDS011;10993;52.510;13.456;2022-09-25T20:02:39;6.75;;;4.20;;
21663;SDS011;10993;52.510;13.456;2022-09-25T20:07:43;7.13;;;4.57;;
21663;SDS011;10993;52.510;13.456;2022-09-25T20:12:44;7.63;;;4.38;;
21663;SDS011;10993;52.510;13.456;2022-09-25T20:17:45;7.85;;;4.10;;
21663;SDS011;10993;52.510;13.456;2022-09-25T20:22:46;7.07;;;4.30;;
21663;SDS011;10993;52.510;13.456;2022-09-25T20:27:46;8.88;;;5.00;;
21663;SDS011;10993;52.510;13.456;2022-09-25T20:32:48;8.40;;;5.03;;
21663;SDS011;10993;52.510;13.456;2022-09-25T20:37:48;9.18;;;4.47;;
21663;SDS011;10993;52.510;13.456;2022-09-25T20:42:49;9.43;;;4.33;;
21663;SDS011;10993;52.510;13.456;2022-09-25T20:47:50;7.90;;;4.73;;
21663;SDS011;10993;52.510;13.456;2022-09-25T20:52:54;8.57;;;5.03;;
21663;SDS011;10993;52.510;13.456;2022-09-25T20:57:55;7.75;;;4.50;;
21663;SDS011;10993;52.510;13.456;2022-09-25T21:02:58;6.00;;;3.92;;
21663;SDS011;10993;52.510;13.456;2022-09-25T21:07:59;6.07;;;3.42;;
21663;SDS011;10993;52.510;13.456;2022-09-25T21:13:00;6.38;;;3.25;;
21663;SDS011;10993;52.510;13.456;2022-09-25T21:18:05;6.55;;;3.55;;
21663;SDS011;10993;52.510;13.456;2022-09-25T21:23:06;5.25;;;3.22;;
21663;SDS011;10993;52.510;13.456;2022-09-25T21:28:06;5.88;;;4.05;;
21663;SDS011;10993;52.510;13.456;2022-09-25T21:33:08;6.88;;;3.55;;
21663;SDS011;10993;52.510;13.456;2022-09-25T21:38:08;5.65;;;3.38;;
21663;SDS011;10993;52.510;13.456;2022-09-25T21:43:08;6.07;;;3.33;;
21663;SDS011;10993;52.510;13.456;2022-09-25T21:48:11;5.85;;;3.65;;
21663;SDS011;10993;52.510;13.456;2022-09-25T21:53:12;7.25;;;3.80;;
21663;SDS011;10993;52.510;13.456;2022-09-25T21:58:12;6.20;;;3.75;;
21663;SDS011;10993;52.510;13.456;2022-09-25T22:03:14;5.35;;;3.55;;
21663;SDS011;10993;52.510;13.456;2022-09-25T22:08:14;6.13;;;3.75;;
21663;SDS011;10993;52.510;13.456;2022-09-25T22:13:15;5.85;;;3.42;;
21663;SDS011;10993;52.510;13.456;2022-09-25T22:18:17;5.95;;;3.75;;
21663;SDS011;10993;52.510;13.456;2022-09-25T22:23:17;6.93;;;3.60;;
21663;SDS011;10993;52.510;13.456;2022-09-25T22:28:19;5.68;;;3.28;;
21663;SDS011;10993;52.510;13.456;2022-09-25T22:33:21;5.32;;;3.15;;
21663;SDS011;10993;52.510;13.456;2022-09-25T22:38:22;5.28;;;3.38;;
21663;SDS011;10993;52.510;13.456;2022-09-25T22:43:22;4.72;;;2.97;;
21663;SDS011;10993;52.510;13.456;2022-09-25T22:48:24;5.72;;;3.33;;
21663;SDS011;10993;52.510;13.456;2022-09-25T22:53:25;5.43;;;3.17;;
21663;SDS011;10993;52.510;13.456;2022-09-25T22:58:26;6.10;;;3.60;;
21663;SDS011;10993;52.510;13.456;2022-09-25T23:03:28;5.03;;;2.80;;
21663;SDS011;10993;52.510;13.456;2022-09-25T23:08:29;5.38;;;3.13;;
21663;SDS011;10993;52.510;13.456;2022-09-25T23:13:30;7.20;;;2.72;;
21663;SDS011;10993;52.510;13.456;2022-09-25T23:18:32;4.95;;;2.90;;
21663;SDS011;10993;52.510;13.456;2022-09-25T23:23:33;5.70;;;3.00;;
21663;SDS011;10993;52.510;13.456;2022-09-25T23:28:33;4.28;;;2.35;;
21663;SDS011;10993;52.510;13.456;2022-09-25T23:33:37;5.13;;;2.60;;
21663;SDS011;10993;52.510;13.456;2022-09-25T23:38:38;5.82;;;2.92;;
21663;SDS011;10993;52.510;13.456;2022-09-25T23:43:39;5.07;;;3.33;;
21663;SDS011;10993;52.510;13.456;2022-09-25T23:48:40;4.60;;;2.85;;
21663;SDS011;10993;52.510;13.456;2022-09-25T23:53:41;8.30;;;3.60;;
21663;SDS011;10993;52.510;13.456;2022-09-25T23:58:43;6.72;;;3.38;;
